Time;durP1;ratioP1;P1;durP2;ratioP2;P2;SDS_P1;SDS_P2;PMS_P1;PMS_P2;Temp;Humidity;BMP_temperature;BMP_pressure;BME280_temperature;BME280_humidity;BME280_pressure;Samples;Min_cycle;Max_cycle;Signal;HPM_P1;HPM_P2
2022/02/28 00:00:45;;;;;;;18.45;11.75;;;25.80;91.40;;;;;;5105461;28;20216;-44
2022/02/28 00:03:12;;;;;;;16.60;11.15;;;25.80;91.30;;;;;;5104579;28;20058;-43
2022/02/28 00:05:39;;;;;;;15.38;10.82;;;25.80;91.20;;;;;;5105043;28;20193;-42
2022/02/28 00:08:06;;;;;;;15.55;10.10;;;25.80;91.20;;;;;;5104776;28;20020;-40
2022/02/28 00:10:33;;;;;;;13.30;9.70;;;25.70;91.30;;;;;;5105020;28;20020;-44
2022/02/28 00:13:00;;;;;;;11.00;9.05;;;25.70;91.20;;;;;;5104803;28;20032;-45
2022/02/28 00:15:28;;;;;;;17.50;9.95;;;25.70;91.20;;;;;;5105164;28;20024;-41
2022/02/28 00:17:54;;;;;;;15.57;9.90;;;25.70;91.20;;;;;;5104595;28;20073;-43
2022/02/28 00:20:21;;;;;;;14.38;10.07;;;25.70;91.30;;;;;;5103246;28;20040;-42
2022/02/28 00:22:51;;;;;;;20.38;10.50;;;25.70;91.20;;;;;;5096742;28;20027;-42
2022/02/28 00:25:18;;;;;;;16.17;10.10;;;25.70;91.20;;;;;;5095000;28;20095;-44
2022/02/28 00:27:44;;;;;;;17.38;10.75;;;25.70;91.20;;;;;;5091927;28;20020;-41
2022/02/28 00:30:12;;;;;;;15.88;10.57;;;25.70;91.20;;;;;;5094930;28;20247;-43
2022/02/28 00:32:39;;;;;;;20.92;11.77;;;25.70;91.20;;;;;;5093336;28;20312;-45
2022/02/28 00:35:08;;;;;;;17.13;11.00;;;25.70;91.20;;;;;;5104740;28;20048;-43
2022/02/28 00:37:35;;;;;;;15.20;11.43;;;25.70;91.30;;;;;;5102794;28;20039;-39
2022/02/28 00:40:04;;;;;;;18.20;11.57;;;25.70;91.30;;;;;;5104457;28;20088;-41
2022/02/28 00:42:30;;;;;;;16.73;12.20;;;25.70;91.30;;;;;;5103958;28;20036;-45
2022/02/28 00:44:57;;;;;;;15.48;12.38;;;25.70;91.40;;;;;;5104237;28;20050;-43
2022/02/28 00:47:25;;;;;;;14.40;12.25;;;25.70;91.30;;;;;;5103958;28;20020;-43
2022/02/28 00:49:51;;;;;;;14.02;12.45;;;25.70;91.30;;;;;;5104113;28;20069;-44
2022/02/28 00:52:18;;;;;;;19.23;13.88;;;25.70;91.40;;;;;;5102521;28;20272;-42
2022/02/28 00:54:45;;;;;;;21.27;14.00;;;25.70;91.50;;;;;;5100149;28;20031;-44
2022/02/28 00:57:12;;;;;;;17.85;12.52;;;25.70;91.60;;;;;;5103870;28;20087;-44
2022/02/28 00:59:38;;;;;;;18.08;12.80;;;25.70;91.60;;;;;;5104448;28;20030;-42
2022/02/28 01:02:05;;;;;;;15.68;13.20;;;25.70;91.60;;;;;;5103958;28;20028;-48
2022/02/28 01:04:32;;;;;;;16.48;13.05;;;25.70;91.50;;;;;;5104209;28;20051;-43
2022/02/28 01:06:59;;;;;;;16.30;12.57;;;25.70;91.40;;;;;;5102221;28;20040;-44
2022/02/28 01:09:25;;;;;;;18.80;12.85;;;25.70;91.50;;;;;;5094609;28;20020;-43
2022/02/28 01:11:52;;;;;;;15.48;12.38;;;25.70;91.50;;;;;;5091904;28;20111;-45
2022/02/28 01:14:19;;;;;;;17.25;12.82;;;25.70;91.40;;;;;;5093622;28;20028;-45
2022/02/28 01:16:47;;;;;;;16.55;13.32;;;25.70;91.40;;;;;;5092994;28;20032;-43
2022/02/28 01:19:13;;;;;;;21.65;13.40;;;25.70;91.40;;;;;;5092699;28;20079;-37
2022/02/28 01:21:40;;;;;;;19.58;12.90;;;25.70;91.30;;;;;;5092347;28;20069;-35
2022/02/28 01:24:07;;;;;;;17.30;13.43;;;25.70;91.30;;;;;;5091872;28;20091;-39
2022/02/28 01:26:34;;;;;;;20.40;14.77;;;25.70;91.20;;;;;;5092711;28;20024;-45
2022/02/28 01:29:03;;;;;;;17.27;14.32;;;25.70;91.20;;;;;;5093332;28;20020;-45
2022/02/28 01:31:30;;;;;;;22.05;14.95;;;25.70;91.10;;;;;;5094976;28;20024;-45
2022/02/28 01:33:57;;;;;;;18.65;15.88;;;25.70;91.10;;;;;;5090915;28;20070;-45
2022/02/28 01:36:24;;;;;;;18.30;16.25;;;25.70;91.10;;;;;;5094487;28;20028;-44
2022/02/28 01:38:50;;;;;;;22.17;16.58;;;25.70;91.00;;;;;;5092471;28;20032;-45
2022/02/28 01:41:18;;;;;;;18.90;16.67;;;25.70;90.90;;;;;;5093001;28;20239;-43
2022/02/28 01:43:45;;;;;;;20.58;16.60;;;25.70;90.90;;;;;;5092846;28;20212;-45
2022/02/28 01:46:12;;;;;;;20.48;17.05;;;25.70;90.80;;;;;;5091534;28;20040;-45
2022/02/28 01:48:39;;;;;;;21.50;19.00;;;25.70;90.80;;;;;;5093112;28;20339;-47
2022/02/28 01:51:05;;;;;;;24.23;18.60;;;25.70;90.70;;;;;;5093184;28;20016;-46
2022/02/28 01:53:32;;;;;;;24.33;19.83;;;25.70;90.70;;;;;;5092610;28;20028;-42
2022/02/28 01:55:59;;;;;;;25.70;19.58;;;25.70;90.70;;;;;;5093627;28;20024;-44
2022/02/28 01:58:37;;;;;;;26.02;20.08;;;25.70;90.60;;;;;;5094299;28;20040;-43
2022/02/28 02:01:06;;;;;;;24.65;19.75;;;25.70;90.60;;;;;;5097786;28;20182;-47
2022/02/28 02:03:33;;;;;;;25.42;20.70;;;25.70;90.60;;;;;;5101307;28;20027;-45
2022/02/28 02:06:00;;;;;;;27.92;22.13;;;25.70;90.50;;;;;;5106193;28;20020;-44
2022/02/28 02:08:27;;;;;;;28.75;22.77;;;25.70;90.40;;;;;;5107470;28;20039;-46
2022/02/28 02:10:55;;;;;;;24.15;21.52;;;25.70;90.40;;;;;;5107802;28;20199;-44
2022/02/28 02:13:22;;;;;;;26.77;22.95;;;25.70;90.40;;;;;;5107531;28;20073;-46
2022/02/28 02:15:49;;;;;;;28.55;21.80;;;25.70;90.40;;;;;;5106155;28;20062;-46
2022/02/28 02:18:15;;;;;;;30.88;21.77;;;25.70;90.60;;;;;;5106124;28;20031;-43
2022/02/28 02:20:42;;;;;;;27.27;21.27;;;25.70;90.50;;;;;;5096821;28;20064;-44
2022/02/28 02:23:11;;;;;;;26.50;20.70;;;25.70;90.40;;;;;;5095858;28;20013;-46
2022/02/28 02:25:40;;;;;;;23.17;20.08;;;25.70;90.50;;;;;;5096915;28;20031;-48
2022/02/28 02:28:16;;;;;;;26.02;19.35;;;25.70;90.50;;;;;;5095540;28;20054;-45
2022/02/28 02:30:56;;;;;;;23.85;17.98;;;25.70;90.50;;;;;;5095756;28;20020;-44
2022/02/28 02:33:24;;;;;;;23.70;18.50;;;25.70;90.40;;;;;;5086759;28;20044;-48
2022/02/28 02:35:56;;;;;;;24.75;17.65;;;25.70;90.60;;;;;;5087879;28;20081;-42
2022/02/28 02:38:25;;;;;;;21.15;17.40;;;25.70;90.70;;;;;;5106151;28;20047;-42
2022/02/28 02:40:52;;;;;;;25.00;17.20;;;25.70;90.70;;;;;;5106788;28;20296;-46
2022/02/28 02:43:20;;;;;;;23.50;17.08;;;25.70;90.70;;;;;;5105539;28;20111;-45
2022/02/28 02:45:47;;;;;;;24.75;16.83;;;25.70;90.60;;;;;;5107097;28;20024;-45
2022/02/28 02:48:18;;;;;;;22.13;16.48;;;25.70;90.70;;;;;;5107229;28;20031;-45
2022/02/28 02:50:45;;;;;;;20.98;14.98;;;25.70;90.70;;;;;;5106980;28;20095;-43
2022/02/28 02:53:13;;;;;;;22.90;15.73;;;25.70;90.80;;;;;;5106820;28;20043;-44
2022/02/28 02:55:41;;;;;;;22.38;14.55;;;25.70;90.80;;;;;;5106462;28;20044;-46
2022/02/28 02:58:08;;;;;;;16.90;13.50;;;25.70;90.80;;;;;;5106749;28;20159;-42
2022/02/28 03:00:35;;;;;;;18.60;13.15;;;25.70;90.80;;;;;;5106741;28;20027;-47
2022/02/28 03:03:02;;;;;;;42.40;36.47;;;25.70;90.80;;;;;;5105260;28;20039;-42
2022/02/28 03:05:29;;;;;;;20.98;16.23;;;25.70;90.80;;;;;;5106681;28;20095;-45
2022/02/28 03:07:55;;;;;;;71.93;65.05;;;25.70;90.80;;;;;;5106318;28;20103;-46
2022/02/28 03:10:22;;;;;;;27.65;24.70;;;25.70;90.80;;;;;;5105954;28;20047;-45
2022/02/28 03:12:49;;;;;;;20.48;15.48;;;25.70;90.90;;;;;;5106179;28;20226;-47
2022/02/28 03:15:15;;;;;;;22.85;15.45;;;25.70;91.00;;;;;;5106505;28;20028;-44
2022/02/28 03:17:42;;;;;;;22.38;15.05;;;25.70;91.00;;;;;;5105891;28;20271;-43
2022/02/28 03:20:09;;;;;;;17.85;14.38;;;25.70;90.90;;;;;;5099535;28;20032;-48
2022/02/28 03:22:36;;;;;;;22.85;18.17;;;25.70;90.90;;;;;;5086440;28;20106;-44
2022/02/28 03:25:03;;;;;;;56.13;50.47;;;25.60;90.90;;;;;;5085405;28;20090;-45
2022/02/28 03:27:30;;;;;;;70.40;63.15;;;25.60;91.00;;;;;;5102880;28;20054;-46
2022/02/28 03:29:57;;;;;;;58.50;52.90;;;25.60;90.90;;;;;;5105849;28;20024;-45
2022/02/28 03:32:24;;;;;;;23.67;18.85;;;25.70;90.90;;;;;;5105757;28;20030;-44
2022/02/28 03:34:52;;;;;;;23.08;17.48;;;25.70;91.00;;;;;;5105943;28;20319;-43
2022/02/28 03:37:19;;;;;;;21.40;17.98;;;25.60;90.90;;;;;;5105711;28;20054;-42
2022/02/28 03:39:45;;;;;;;21.45;16.35;;;25.60;90.80;;;;;;5103060;28;20085;-45
2022/02/28 03:42:12;;;;;;;23.45;16.65;;;25.60;90.90;;;;;;5099731;28;20055;-44
2022/02/28 03:44:38;;;;;;;21.42;16.75;;;25.60;90.90;;;;;;5095587;28;20033;-49
2022/02/28 03:47:05;;;;;;;23.20;16.38;;;25.60;91.00;;;;;;5098481;28;20031;-46
2022/02/28 03:49:32;;;;;;;18.55;16.33;;;25.60;91.00;;;;;;5105459;28;20024;-44
2022/02/28 03:51:58;;;;;;;23.15;16.58;;;25.60;91.10;;;;;;5105259;28;20028;-40
2022/02/28 03:54:25;;;;;;;21.55;16.50;;;25.60;91.20;;;;;;5105325;28;20020;-46
2022/02/28 03:56:51;;;;;;;22.85;16.38;;;25.60;91.10;;;;;;5105222;28;20153;-40
2022/02/28 03:59:18;;;;;;;24.35;17.25;;;25.60;91.10;;;;;;5105508;28;20039;-35
2022/02/28 04:01:44;;;;;;;24.83;16.92;;;25.50;91.00;;;;;;5105026;28;20047;-36
2022/02/28 04:04:11;;;;;;;20.17;15.90;;;25.60;91.00;;;;;;5105128;28;20072;-44
2022/02/28 04:06:37;;;;;;;21.08;16.33;;;25.60;91.00;;;;;;5105145;28;20058;-45
2022/02/28 04:09:05;;;;;;;20.98;16.00;;;25.60;91.00;;;;;;5104722;28;20032;-43
2022/02/28 04:11:33;;;;;;;21.58;16.05;;;25.60;91.00;;;;;;5100662;28;20042;-35
2022/02/28 04:14:00;;;;;;;22.42;15.07;;;25.60;90.90;;;;;;5103428;28;20058;-39
2022/02/28 04:16:27;;;;;;;19.15;16.00;;;25.60;90.90;;;;;;5104120;28;20016;-43
2022/02/28 04:18:53;;;;;;;22.38;15.65;;;25.60;90.90;;;;;;5104851;28;20024;-43
2022/02/28 04:21:20;;;;;;;24.30;15.68;;;25.60;90.90;;;;;;5104804;28;20024;-40
2022/02/28 04:23:51;;;;;;;19.45;15.48;;;25.60;91.00;;;;;;5104804;28;20028;-34
2022/02/28 04:26:19;;;;;;;17.70;15.65;;;25.50;90.90;;;;;;5105154;28;20077;-35
2022/02/28 04:28:46;;;;;;;18.80;14.80;;;25.50;90.90;;;;;;5104921;28;20254;-36
2022/02/28 04:31:13;;;;;;;18.90;15.27;;;25.50;90.80;;;;;;5105223;28;20083;-43
2022/02/28 04:33:40;;;;;;;18.08;15.27;;;25.50;90.80;;;;;;5104618;28;20036;-48
2022/02/28 04:36:07;;;;;;;19.25;15.48;;;25.50;90.80;;;;;;5104565;28;20324;-48
2022/02/28 04:38:33;;;;;;;17.83;14.75;;;25.50;90.70;;;;;;5104693;28;20095;-47
2022/02/28 04:41:00;;;;;;;20.17;15.02;;;25.60;90.70;;;;;;5104846;28;20028;-40
2022/02/28 04:43:26;;;;;;;20.35;14.75;;;25.50;90.60;;;;;;5104467;28;20077;-40
2022/02/28 04:45:53;;;;;;;18.98;14.93;;;25.50;90.50;;;;;;5104974;28;20031;-42
2022/02/28 04:48:21;;;;;;;18.30;14.07;;;25.60;90.60;;;;;;5104582;28;20016;-41
2022/02/28 04:50:51;;;;;;;18.67;14.95;;;25.50;90.50;;;;;;5104803;28;20091;-44
2022/02/28 04:53:17;;;;;;;20.55;15.02;;;25.50;90.70;;;;;;5104409;28;20366;-43
2022/02/28 04:55:44;;;;;;;17.25;13.90;;;25.50;90.40;;;;;;5104522;28;20024;-35
2022/02/28 04:58:11;;;;;;;17.20;13.90;;;25.50;90.40;;;;;;5104363;28;20091;-42
2022/02/28 05:00:37;;;;;;;16.92;12.95;;;25.50;90.40;;;;;;5104560;28;20227;-46
2022/02/28 05:03:04;;;;;;;18.17;13.73;;;25.50;90.30;;;;;;5102959;28;20036;-50
2022/02/28 05:05:31;;;;;;;19.10;13.90;;;25.60;90.30;;;;;;5104162;28;20035;-35
2022/02/28 05:07:57;;;;;;;19.10;13.70;;;25.50;90.30;;;;;;5104188;28;20024;-36
2022/02/28 05:10:24;;;;;;;16.67;13.10;;;25.60;90.30;;;;;;5104285;28;20284;-37
2022/02/28 05:12:50;;;;;;;16.13;13.57;;;25.50;90.30;;;;;;5104150;28;20036;-38
2022/02/28 05:15:17;;;;;;;15.40;12.40;;;25.60;90.20;;;;;;5104505;28;20196;-38
2022/02/28 05:17:43;;;;;;;17.50;12.25;;;25.50;90.20;;;;;;5104066;28;20083;-42
2022/02/28 05:20:11;;;;;;;14.38;11.30;;;25.50;90.10;;;;;;5104337;28;20062;-41
2022/02/28 05:22:37;;;;;;;18.63;11.85;;;25.50;90.00;;;;;;5104053;28;20028;-41
2022/02/28 05:25:04;;;;;;;17.13;11.68;;;25.60;90.10;;;;;;5103958;28;20044;-43
2022/02/28 05:27:49;;;;;;;16.58;11.27;;;25.60;90.00;;;;;;5104266;28;20224;-35
2022/02/28 05:30:17;;;;;;;11.57;10.20;;;25.60;90.00;;;;;;5104138;28;20083;-36
2022/02/28 05:32:44;;;;;;;14.18;10.55;;;25.60;90.00;;;;;;5104795;28;20020;-37
2022/02/28 05:35:12;;;;;;;15.15;9.65;;;25.50;89.80;;;;;;5108377;28;20020;-36
2022/02/28 05:37:39;;;;;;;12.38;10.00;;;25.50;89.90;;;;;;5108090;28;20036;-36
2022/02/28 05:40:11;;;;;;;13.02;9.82;;;25.60;89.80;;;;;;5108053;28;20020;-39
2022/02/28 05:42:38;;;;;;;12.83;9.63;;;25.60;89.80;;;;;;5108023;28;20324;-36
2022/02/28 05:45:06;;;;;;;14.35;10.02;;;25.60;89.70;;;;;;5107871;28;20052;-36
2022/02/28 05:47:33;;;;;;;11.32;8.70;;;25.60;89.70;;;;;;5108152;28;20259;-36
2022/02/28 05:49:59;;;;;;;13.80;9.27;;;25.60;89.70;;;;;;5107902;28;20335;-45
2022/02/28 05:52:26;;;;;;;14.93;9.00;;;25.50;89.60;;;;;;5107719;28;20027;-42
2022/02/28 05:54:53;;;;;;;10.43;8.90;;;25.50;89.70;;;;;;5107778;28;20031;-44
2022/02/28 05:57:19;;;;;;;10.45;8.68;;;25.50;89.80;;;;;;5107707;28;20066;-42
2022/02/28 05:59:46;;;;;;;11.75;8.10;;;25.50;89.90;;;;;;5107897;28;20095;-39
2022/02/28 06:02:12;;;;;;;12.63;8.38;;;25.60;90.00;;;;;;5107426;28;20081;-41
2022/02/28 06:04:39;;;;;;;10.23;8.13;;;25.60;89.90;;;;;;5107578;28;20026;-44
2022/02/28 06:07:05;;;;;;;11.32;7.28;;;25.50;89.80;;;;;;5107528;28;20028;-46
2022/02/28 06:09:32;;;;;;;14.25;8.00;;;25.60;89.70;;;;;;5107374;28;20093;-36
2022/02/28 06:11:59;;;;;;;8.93;7.05;;;25.50;89.80;;;;;;5107379;28;20251;-39
2022/02/28 06:14:25;;;;;;;9.95;7.68;;;25.60;89.90;;;;;;5107385;28;20216;-42
2022/02/28 06:16:52;;;;;;;10.82;7.57;;;25.60;90.00;;;;;;5107099;28;20084;-42
2022/02/28 06:19:19;;;;;;;10.27;7.60;;;25.60;89.90;;;;;;5107211;28;20042;-35
2022/02/28 06:21:45;;;;;;;12.23;7.63;;;25.60;89.90;;;;;;5107237;28;20342;-43
2022/02/28 06:24:12;;;;;;;10.95;7.25;;;25.60;90.00;;;;;;5106807;28;20051;-46
2022/02/28 06:26:38;;;;;;;10.20;6.65;;;25.60;89.90;;;;;;5107206;28;20020;-39
2022/02/28 06:29:05;;;;;;;11.43;7.05;;;25.50;90.10;;;;;;5107140;28;20079;-44
2022/02/28 06:31:32;;;;;;;9.50;7.10;;;25.50;90.10;;;;;;5107378;28;20035;-42
2022/02/28 06:33:58;;;;;;;9.27;7.03;;;25.50;90.20;;;;;;5107196;28;20375;-46
2022/02/28 06:36:25;;;;;;;9.35;7.30;;;25.50;90.30;;;;;;5106870;28;20094;-45
2022/02/28 06:38:51;;;;;;;12.02;7.63;;;25.50;90.30;;;;;;5106779;28;20036;-45
2022/02/28 06:41:18;;;;;;;11.00;6.97;;;25.50;90.30;;;;;;5107408;28;20376;-45
2022/02/28 06:43:44;;;;;;;13.93;6.90;;;25.50;90.30;;;;;;5106192;28;20077;-44
2022/02/28 06:46:11;;;;;;;12.18;7.30;;;25.50;90.30;;;;;;5107070;28;20231;-43
2022/02/28 06:48:38;;;;;;;11.23;7.35;;;25.50;90.30;;;;;;5106886;28;20090;-42
2022/02/28 06:51:04;;;;;;;10.20;6.97;;;25.50;90.30;;;;;;5107048;28;20079;-42
2022/02/28 06:53:31;;;;;;;11.27;7.25;;;25.50;90.30;;;;;;5106489;28;20020;-45
2022/02/28 06:55:57;;;;;;;9.77;7.00;;;25.50;90.40;;;;;;5106966;28;20036;-42
2022/02/28 06:58:24;;;;;;;15.02;7.80;;;25.50;90.30;;;;;;5106585;28;20016;-44
2022/02/28 07:00:52;;;;;;;12.25;7.90;;;25.50;90.40;;;;;;5106612;28;20364;-46
2022/02/28 07:03:21;;;;;;;14.00;7.80;;;25.50;90.40;;;;;;5105839;28;20445;-45
2022/02/28 07:05:52;;;;;;;12.15;7.53;;;25.50;90.40;;;;;;5106823;28;20028;-41
2022/02/28 07:08:20;;;;;;;13.50;8.00;;;25.50;90.40;;;;;;5106241;28;20028;-41
2022/02/28 07:10:47;;;;;;;11.95;7.95;;;25.50;90.50;;;;;;5106599;28;20126;-46
2022/02/28 07:13:14;;;;;;;10.32;7.40;;;25.50;90.60;;;;;;5106219;28;20324;-43
2022/02/28 07:15:42;;;;;;;13.95;8.00;;;25.50;90.80;;;;;;5106285;28;20027;-45
2022/02/28 07:18:10;;;;;;;12.35;8.18;;;25.50;90.60;;;;;;5106149;28;20081;-44
2022/02/28 07:20:37;;;;;;;12.60;7.68;;;25.50;90.70;;;;;;5106428;28;20144;-45
2022/02/28 07:23:06;;;;;;;12.77;8.63;;;25.50;90.80;;;;;;5105897;28;20316;-44
2022/02/28 07:25:33;;;;;;;13.40;7.97;;;25.50;90.80;;;;;;5106059;28;20048;-44
2022/02/28 07:28:00;;;;;;;14.20;8.38;;;25.50;90.90;;;;;;5106020;28;20028;-44
2022/02/28 07:30:27;;;;;;;14.35;8.23;;;25.50;91.00;;;;;;5106040;28;20087;-39
2022/02/28 07:32:53;;;;;;;11.00;7.90;;;25.50;91.00;;;;;;5105923;28;20426;-41
2022/02/28 07:35:20;;;;;;;15.48;8.02;;;25.50;91.00;;;;;;5105979;28;20074;-43
2022/02/28 07:37:47;;;;;;;12.45;8.25;;;25.50;91.00;;;;;;5105652;28;20043;-45
2022/02/28 07:40:14;;;;;;;11.07;7.80;;;25.40;91.00;;;;;;5105891;28;20103;-46
2022/02/28 07:42:41;;;;;;;15.82;7.97;;;25.40;91.00;;;;;;5105973;28;20083;-43
2022/02/28 07:45:09;;;;;;;15.13;7.97;;;25.50;91.20;;;;;;5105560;28;20027;-44
2022/02/28 07:47:35;;;;;;;11.50;8.18;;;25.50;91.10;;;;;;5105680;28;20077;-42
2022/02/28 07:50:04;;;;;;;13.55;8.07;;;25.50;91.10;;;;;;5105724;28;20032;-42
2022/02/28 07:52:31;;;;;;;12.10;8.02;;;25.40;91.10;;;;;;5105356;28;20317;-44
2022/02/28 07:54:58;;;;;;;11.13;7.70;;;25.40;91.10;;;;;;5104933;28;20330;-45
2022/02/28 07:57:24;;;;;;;13.95;8.25;;;25.40;91.10;;;;;;5105337;28;20321;-49
2022/02/28 07:59:51;;;;;;;14.55;8.07;;;25.40;91.20;;;;;;5105241;28;20023;-44
2022/02/28 08:02:17;;;;;;;11.13;8.07;;;25.40;91.30;;;;;;5105192;28;20228;-43
2022/02/28 08:04:44;;;;;;;15.68;7.97;;;25.40;91.30;;;;;;5105211;28;20028;-43
2022/02/28 08:07:10;;;;;;;9.75;7.82;;;25.40;91.40;;;;;;5105112;28;20028;-41
2022/02/28 08:09:37;;;;;;;11.80;7.50;;;25.40;91.40;;;;;;5105153;28;20031;-45
2022/02/28 08:12:04;;;;;;;13.10;7.55;;;25.40;91.30;;;;;;5105104;28;20012;-35
2022/02/28 08:14:31;;;;;;;13.55;7.35;;;25.40;91.30;;;;;;5105058;28;20315;-34
2022/02/28 08:16:57;;;;;;;10.63;7.72;;;25.40;91.20;;;;;;5104953;28;20073;-50
2022/02/28 08:19:24;;;;;;;13.88;7.70;;;25.40;91.20;;;;;;5105010;28;20083;-48
2022/02/28 08:21:50;;;;;;;13.10;7.82;;;25.30;91.40;;;;;;5104900;28;20036;-45
2022/02/28 08:24:17;;;;;;;12.35;7.50;;;25.40;91.40;;;;;;5104665;28;20038;-43
2022/02/28 08:26:44;;;;;;;11.35;8.25;;;25.30;91.40;;;;;;5104867;28;20032;-40
2022/02/28 08:29:11;;;;;;;11.70;7.68;;;25.40;91.40;;;;;;5104727;28;20216;-43
2022/02/28 08:31:38;;;;;;;12.73;7.68;;;25.40;91.30;;;;;;5104590;28;20035;-44
2022/02/28 08:34:06;;;;;;;10.57;7.72;;;25.40;91.40;;;;;;5104664;28;20077;-42
2022/02/28 08:36:34;;;;;;;10.82;7.97;;;25.30;91.50;;;;;;5105143;28;20024;-45
2022/02/28 08:39:02;;;;;;;15.52;8.18;;;25.30;91.60;;;;;;5104435;28;20028;-45
2022/02/28 08:41:29;;;;;;;13.18;7.90;;;25.30;91.60;;;;;;5105109;28;20034;-46
2022/02/28 08:43:57;;;;;;;14.43;7.50;;;25.30;91.70;;;;;;5104449;28;20023;-44
2022/02/28 08:46:23;;;;;;;11.20;7.18;;;25.30;91.70;;;;;;5104869;28;20048;-44
2022/02/28 08:48:50;;;;;;;11.52;7.30;;;25.40;91.70;;;;;;5104549;28;20023;-45
2022/02/28 08:51:16;;;;;;;11.77;7.85;;;25.40;91.70;;;;;;5104895;28;20136;-45
2022/02/28 08:53:43;;;;;;;13.05;7.22;;;25.30;91.70;;;;;;5104228;28;20031;-43
2022/02/28 08:56:10;;;;;;;13.82;6.90;;;25.30;91.70;;;;;;5103314;28;20058;-45
2022/02/28 08:58:37;;;;;;;8.80;6.38;;;25.30;91.60;;;;;;5104212;28;20036;-43
2022/02/28 09:01:04;;;;;;;8.18;6.45;;;25.30;91.10;;;;;;5104470;28;20027;-49
2022/02/28 09:03:30;;;;;;;10.80;7.13;;;25.30;91.00;;;;;;5104108;28;20040;-45
2022/02/28 09:05:57;;;;;;;11.60;6.10;;;25.30;91.00;;;;;;5104098;28;20015;-46
2022/02/28 09:08:23;;;;;;;9.73;6.95;;;25.30;90.50;;;;;;5103840;28;20024;-47
2022/02/28 09:10:50;;;;;;;9.98;6.50;;;25.30;90.50;;;;;;5104508;28;20035;-45
2022/02/28 09:13:17;;;;;;;11.75;6.50;;;25.30;90.40;;;;;;5104164;28;20291;-45
2022/02/28 09:15:43;;;;;;;10.15;6.65;;;25.30;90.00;;;;;;5104210;28;20078;-43
2022/02/28 09:18:11;;;;;;;11.30;6.38;;;25.30;90.10;;;;;;5104101;28;20331;-43
2022/02/28 09:20:38;;;;;;;9.45;6.93;;;25.30;89.90;;;;;;5104477;28;20062;-43
2022/02/28 09:23:05;;;;;;;10.98;6.93;;;25.20;89.60;;;;;;5103878;28;20043;-43
2022/02/28 09:25:32;;;;;;;12.90;7.22;;;25.20;89.30;;;;;;5104143;28;20081;-48
2022/02/28 09:27:58;;;;;;;10.63;8.68;;;25.20;89.20;;;;;;5104205;28;20301;-46
2022/02/28 09:30:26;;;;;;;12.85;9.85;;;25.10;89.30;;;;;;5104044;28;20016;-44
2022/02/28 09:32:53;;;;;;;12.93;8.85;;;25.10;89.40;;;;;;5103914;28;20024;-48
2022/02/28 09:35:20;;;;;;;16.25;8.18;;;25.10;89.50;;;;;;5104125;28;20057;-48
2022/02/28 09:37:46;;;;;;;11.43;8.38;;;25.10;89.60;;;;;;5103761;28;20024;-44
2022/02/28 09:40:13;;;;;;;12.80;9.00;;;25.10;89.30;;;;;;5104007;28;20043;-44
2022/02/28 09:42:40;;;;;;;12.73;8.35;;;25.10;89.20;;;;;;5103804;28;20216;-42
2022/02/28 09:45:07;;;;;;;13.43;8.85;;;25.10;89.20;;;;;;5103824;28;20016;-43
2022/02/28 09:47:35;;;;;;;12.20;8.95;;;25.10;89.40;;;;;;5103825;28;20081;-44
2022/02/28 09:50:02;;;;;;;15.00;9.52;;;25.20;89.30;;;;;;5103970;28;20020;-43
2022/02/28 09:52:30;;;;;;;14.45;9.40;;;25.10;89.50;;;;;;5103622;28;20220;-44
2022/02/28 09:54:56;;;;;;;15.50;10.30;;;25.10;89.40;;;;;;5103766;28;20024;-42
2022/02/28 09:57:23;;;;;;;15.50;9.77;;;25.20;89.30;;;;;;5103779;28;20028;-48
2022/02/28 09:59:50;;;;;;;13.80;10.10;;;25.10;89.30;;;;;;5103813;28;20227;-46
2022/02/28 10:02:17;;;;;;;14.32;10.25;;;25.10;89.30;;;;;;5103516;28;20033;-44
2022/02/28 10:04:43;;;;;;;16.27;10.30;;;25.10;89.30;;;;;;5103801;28;20028;-46
2022/02/28 10:07:21;;;;;;;15.85;10.40;;;25.10;89.30;;;;;;5103443;28;20024;-50
2022/02/28 10:10:03;;;;;;;16.48;11.15;;;25.10;89.50;;;;;;5103766;28;20059;-44
2022/02/28 10:12:31;;;;;;;13.38;10.57;;;25.10;89.60;;;;;;5103520;28;20059;-42
2022/02/28 10:15:09;;;;;;;14.52;10.70;;;25.10;89.60;;;;;;5103669;28;20028;-42
2022/02/28 10:18:06;;;;;;;13.30;10.02;;;25.10;89.90;;;;;;5103805;28;20095;-44
2022/02/28 10:20:36;;;;;;;14.25;9.82;;;25.10;89.50;;;;;;5091281;28;20040;-44
2022/02/28 10:23:12;;;;;;;13.00;10.02;;;25.00;89.60;;;;;;5106991;28;20101;-47
2022/02/28 10:25:42;;;;;;;13.25;10.40;;;25.10;89.90;;;;;;5107134;28;20048;-44
2022/02/28 10:28:09;;;;;;;14.75;9.90;;;25.00;90.00;;;;;;5107135;28;20080;-45
2022/02/28 10:30:36;;;;;;;16.10;10.52;;;25.00;89.90;;;;;;5107257;28;20055;-37
2022/02/28 10:33:11;;;;;;;13.80;10.10;;;25.00;89.90;;;;;;5107069;28;20316;-39
2022/02/28 10:36:01;;;;;;;15.88;9.38;;;25.00;89.90;;;;;;5107139;28;20304;-39
2022/02/28 10:38:29;;;;;;;12.02;8.20;;;25.10;90.00;;;;;;5106852;28;20036;-38
2022/02/28 10:40:56;;;;;;;11.35;7.85;;;25.10;90.00;;;;;;5107102;28;20032;-42
2022/02/28 10:43:28;;;;;;;12.38;7.25;;;25.00;90.10;;;;;;5106801;28;20020;-35
2022/02/28 10:45:56;;;;;;;15.88;6.57;;;25.00;90.10;;;;;;5107013;28;20039;-36
2022/02/28 10:48:24;;;;;;;9.93;6.65;;;24.90;90.20;;;;;;5106555;28;20036;-37
2022/02/28 10:50:51;;;;;;;9.43;6.22;;;24.90;90.30;;;;;;5106512;28;20031;-45
2022/02/28 10:53:23;;;;;;;11.35;6.40;;;24.90;90.40;;;;;;5106733;28;20032;-43
2022/02/28 10:55:51;;;;;;;8.82;6.53;;;24.90;90.50;;;;;;5106769;28;20052;-45
2022/02/28 10:58:24;;;;;;;8.57;5.90;;;24.90;90.40;;;;;;5106747;28;20039;-43
2022/02/28 11:00:59;;;;;;;12.88;6.13;;;24.90;90.40;;;;;;5106485;28;20193;-43
2022/02/28 11:03:43;;;;;;;8.90;5.82;;;24.90;90.40;;;;;;5106656;28;20066;-44
2022/02/28 11:06:11;;;;;;;7.70;5.78;;;25.00;90.40;;;;;;5106984;28;20247;-43
2022/02/28 11:08:44;;;;;;;8.55;5.38;;;25.00;90.30;;;;;;5106618;28;20032;-41
2022/02/28 11:11:12;;;;;;;10.05;5.65;;;25.00;90.30;;;;;;5106603;28;20020;-44
2022/02/28 11:13:38;;;;;;;7.30;5.03;;;25.00;90.20;;;;;;5105982;28;20120;-44
2022/02/28 11:16:05;;;;;;;8.63;4.55;;;25.10;90.30;;;;;;5106622;28;20079;-45
2022/02/28 11:18:32;;;;;;;7.40;4.55;;;25.00;90.20;;;;;;5106075;28;20028;-44
2022/02/28 11:20:59;;;;;;;9.07;3.90;;;25.00;90.30;;;;;;5106369;28;20028;-46
2022/02/28 11:23:25;;;;;;;5.60;4.15;;;25.00;90.30;;;;;;5106279;28;20047;-39
2022/02/28 11:25:52;;;;;;;8.80;4.30;;;25.00;90.30;;;;;;5106048;28;20059;-42
2022/02/28 11:28:18;;;;;;;5.43;3.70;;;24.90;90.30;;;;;;5105877;28;20226;-42
2022/02/28 11:30:45;;;;;;;8.15;3.45;;;24.90;90.20;;;;;;5106097;28;20024;-42
2022/02/28 11:33:17;;;;;;;5.55;3.47;;;24.90;90.10;;;;;;5105905;28;20347;-41
2022/02/28 11:35:54;;;;;;;6.40;3.00;;;24.90;90.10;;;;;;5105658;28;20028;-40
2022/02/28 11:38:25;;;;;;;7.70;3.17;;;24.90;90.00;;;;;;5105744;28;20491;-35
2022/02/28 11:41:01;;;;;;;7.18;3.00;;;24.90;90.10;;;;;;5105831;28;20300;-44
2022/02/28 11:43:30;;;;;;;5.57;2.95;;;24.90;90.00;;;;;;5105634;28;20039;-42
2022/02/28 11:46:18;;;;;;;9.05;2.85;;;24.90;90.00;;;;;;5106211;28;19959;-49
2022/02/28 11:48:57;;;;;;;4.75;2.95;;;24.90;89.80;;;;;;5105535;28;20373;-41
2022/02/28 11:51:26;;;;;;;6.57;2.55;;;25.00;90.00;;;;;;5105837;28;20024;-38
2022/02/28 11:53:57;;;;;;;4.93;2.78;;;25.00;90.00;;;;;;5105329;28;20040;-47
2022/02/28 11:56:24;;;;;;;5.13;2.92;;;25.00;90.00;;;;;;5104717;28;20023;-38
2022/02/28 11:58:54;;;;;;;6.78;2.63;;;25.00;90.00;;;;;;5096716;28;20040;-43
2022/02/28 12:01:29;;;;;;;6.20;2.70;;;25.00;89.90;;;;;;5092692;28;20031;-44
2022/02/28 12:04:16;;;;;;;3.83;2.58;;;25.00;89.90;;;;;;5090212;28;20040;-43
2022/02/28 12:07:06;;;;;;;4.28;2.50;;;25.00;90.00;;;;;;5091301;28;20343;-43
2022/02/28 12:09:33;;;;;;;3.85;2.38;;;25.00;90.30;;;;;;5098088;28;20285;-41
2022/02/28 12:12:27;;;;;;;4.80;2.28;;;25.00;90.10;;;;;;5084726;28;20024;-45
2022/02/28 12:14:56;;;;;;;5.53;2.65;;;25.00;90.10;;;;;;5084774;28;20060;-40
2022/02/28 12:17:35;;;;;;;3.45;2.00;;;25.00;90.10;;;;;;5083469;28;20340;-43
2022/02/28 12:20:28;;;;;;;3.42;2.30;;;25.10;90.20;;;;;;5084654;28;20033;-44
2022/02/28 12:25:45;;;;;;;5.30;2.40;;;25.10;90.00;;;;;;5084548;28;20059;-44
2022/02/28 12:28:26;;;;;;;4.18;2.20;;;25.20;90.00;;;;;;5084412;28;20025;-44
2022/02/28 12:31:07;;;;;;;;;;;25.20;89.90;;;;;;5087668;28;20071;-45
2022/02/28 12:33:34;;;;;;;4.55;2.00;;;25.20;89.80;;;;;;5093173;28;19950;-40
2022/02/28 12:36:16;;;;;;;5.35;2.00;;;25.20;89.70;;;;;;5084199;28;20032;-35
2022/02/28 12:38:51;;;;;;;4.20;2.20;;;25.20;89.80;;;;;;5084138;28;20024;-37
2022/02/28 12:41:23;;;;;;;3.58;2.03;;;25.30;89.80;;;;;;5084357;28;20029;-37